sensor_id;sensor_type;location;lat;lon;timestamp;temperature;humidity
10316;DHT22;5203;48.976;8.306;2023-04-06T00:01:27;4.90;60.50
10316;DHT22;5203;48.976;8.306;2023-04-06T00:03:53;4.90;62.80
10316;DHT22;5203;48.976;8.306;2023-04-06T00:06:18;5.00;61.20
10316;DHT22;5203;48.976;8.306;2023-04-06T00:08:44;4.90;62.20
10316;DHT22;5203;48.976;8.306;2023-04-06T00:11:10;4.90;62.00
10316;DHT22;5203;48.976;8.306;2023-04-06T00:13:35;4.90;62.00
10316;DHT22;5203;48.976;8.306;2023-04-06T00:16:01;4.90;61.80
10316;DHT22;5203;48.976;8.306;2023-04-06T00:18:27;4.90;61.50
10316;DHT22;5203;48.976;8.306;2023-04-06T00:20:53;4.80;62.50
10316;DHT22;5203;48.976;8.306;2023-04-06T00:23:18;4.70;63.40
10316;DHT22;5203;48.976;8.306;2023-04-06T00:25:44;4.70;62.90
10316;DHT22;5203;48.976;8.306;2023-04-06T00:28:10;4.80;62.30
10316;DHT22;5203;48.976;8.306;2023-04-06T00:30:35;4.70;63.20
10316;DHT22;5203;48.976;8.306;2023-04-06T00:33:01;4.80;63.20
10316;DHT22;5203;48.976;8.306;2023-04-06T00:35:27;4.80;63.20
10316;DHT22;5203;48.976;8.306;2023-04-06T00:37:52;4.70;62.90
10316;DHT22;5203;48.976;8.306;2023-04-06T00:40:18;4.80;62.80
10316;DHT22;5203;48.976;8.306;2023-04-06T00:42:44;4.70;63.30
10316;DHT22;5203;48.976;8.306;2023-04-06T00:45:10;4.40;64.90
10316;DHT22;5203;48.976;8.306;2023-04-06T00:47:36;4.40;64.40
10316;DHT22;5203;48.976;8.306;2023-04-06T00:50:02;4.50;63.90
10316;DHT22;5203;48.976;8.306;2023-04-06T00:52:27;4.60;64.20
10316;DHT22;5203;48.976;8.306;2023-04-06T00:54:53;4.40;64.40
10316;DHT22;5203;48.976;8.306;2023-04-06T00:57:19;4.20;66.10
10316;DHT22;5203;48.976;8.306;2023-04-06T00:59:45;4.10;66.90
10316;DHT22;5203;48.976;8.306;2023-04-06T01:02:11;4.20;66.60
10316;DHT22;5203;48.976;8.306;2023-04-06T01:04:37;4.30;66.00
10316;DHT22;5203;48.976;8.306;2023-04-06T01:07:03;4.30;66.10
10316;DHT22;5203;48.976;8.306;2023-04-06T01:09:29;4.40;65.40
10316;DHT22;5203;48.976;8.306;2023-04-06T01:11:56;4.60;64.30
10316;DHT22;5203;48.976;8.306;2023-04-06T01:14:23;4.70;63.40
10316;DHT22;5203;48.976;8.306;2023-04-06T01:16:48;4.70;64.00
10316;DHT22;5203;48.976;8.306;2023-04-06T01:19:14;4.60;63.70
10316;DHT22;5203;48.976;8.306;2023-04-06T01:21:41;4.50;64.30
10316;DHT22;5203;48.976;8.306;2023-04-06T01:24:08;4.50;64.30
10316;DHT22;5203;48.976;8.306;2023-04-06T01:26:34;4.60;64.50
10316;DHT22;5203;48.976;8.306;2023-04-06T01:29:02;4.40;64.60
10316;DHT22;5203;48.976;8.306;2023-04-06T01:31:28;4.50;64.50
10316;DHT22;5203;48.976;8.306;2023-04-06T01:33:54;4.50;64.50
10316;DHT22;5203;48.976;8.306;2023-04-06T01:36:20;4.50;64.20
10316;DHT22;5203;48.976;8.306;2023-04-06T01:38:46;4.40;64.40
10316;DHT22;5203;48.976;8.306;2023-04-06T01:41:12;4.50;64.00
10316;DHT22;5203;48.976;8.306;2023-04-06T01:43:37;4.50;64.40
10316;DHT22;5203;48.976;8.306;2023-04-06T01:46:03;4.40;64.70
10316;DHT22;5203;48.976;8.306;2023-04-06T01:48:29;4.30;65.10
10316;DHT22;5203;48.976;8.306;2023-04-06T01:50:55;4.30;65.00
10316;DHT22;5203;48.976;8.306;2023-04-06T01:53:22;4.20;65.70
10316;DHT22;5203;48.976;8.306;2023-04-06T01:55:48;4.20;66.00
10316;DHT22;5203;48.976;8.306;2023-04-06T01:58:13;4.20;65.70
10316;DHT22;5203;48.976;8.306;2023-04-06T02:00:40;4.00;66.80
10316;DHT22;5203;48.976;8.306;2023-04-06T02:03:06;4.00;67.20
10316;DHT22;5203;48.976;8.306;2023-04-06T02:05:32;3.90;67.50
10316;DHT22;5203;48.976;8.306;2023-04-06T02:08:06;3.80;67.30
10316;DHT22;5203;48.976;8.306;2023-04-06T02:10:33;3.80;68.30
10316;DHT22;5203;48.976;8.306;2023-04-06T02:13:00;3.70;68.50
10316;DHT22;5203;48.976;8.306;2023-04-06T02:15:26;3.70;68.70
10316;DHT22;5203;48.976;8.306;2023-04-06T02:17:52;3.70;68.40
10316;DHT22;5203;48.976;8.306;2023-04-06T02:20:18;3.70;68.70
10316;DHT22;5203;48.976;8.306;2023-04-06T02:22:44;3.80;68.00
10316;DHT22;5203;48.976;8.306;2023-04-06T02:25:10;3.80;67.80
10316;DHT22;5203;48.976;8.306;2023-04-06T02:27:36;3.80;67.40
10316;DHT22;5203;48.976;8.306;2023-04-06T02:30:05;3.80;67.10
10316;DHT22;5203;48.976;8.306;2023-04-06T02:32:31;3.90;66.40
10316;DHT22;5203;48.976;8.306;2023-04-06T02:34:56;3.90;65.00
10316;DHT22;5203;48.976;8.306;2023-04-06T02:37:22;3.90;66.80
10316;DHT22;5203;48.976;8.306;2023-04-06T02:39:49;3.80;66.90
10316;DHT22;5203;48.976;8.306;2023-04-06T02:42:15;3.60;67.40
10316;DHT22;5203;48.976;8.306;2023-04-06T02:44:42;3.60;67.50
10316;DHT22;5203;48.976;8.306;2023-04-06T02:47:08;3.50;68.30
10316;DHT22;5203;48.976;8.306;2023-04-06T02:49:33;3.40;69.20
10316;DHT22;5203;48.976;8.306;2023-04-06T02:51:59;3.30;69.50
10316;DHT22;5203;48.976;8.306;2023-04-06T02:54:25;3.30;69.50
10316;DHT22;5203;48.976;8.306;2023-04-06T02:56:51;3.20;69.50
10316;DHT22;5203;48.976;8.306;2023-04-06T02:59:16;3.30;69.10
10316;DHT22;5203;48.976;8.306;2023-04-06T03:01:42;3.50;67.70
10316;DHT22;5203;48.976;8.306;2023-04-06T03:04:08;3.50;67.60
10316;DHT22;5203;48.976;8.306;2023-04-06T03:06:33;3.60;66.70
10316;DHT22;5203;48.976;8.306;2023-04-06T03:08:59;3.50;67.10
10316;DHT22;5203;48.976;8.306;2023-04-06T03:11:25;3.40;67.80
10316;DHT22;5203;48.976;8.306;2023-04-06T03:13:52;3.40;67.10
10316;DHT22;5203;48.976;8.306;2023-04-06T03:16:17;3.40;67.70
10316;DHT22;5203;48.976;8.306;2023-04-06T03:18:43;3.40;68.10
10316;DHT22;5203;48.976;8.306;2023-04-06T03:21:10;3.30;68.10
10316;DHT22;5203;48.976;8.306;2023-04-06T03:23:36;3.20;68.50
10316;DHT22;5203;48.976;8.306;2023-04-06T03:26:02;3.10;69.20
10316;DHT22;5203;48.976;8.306;2023-04-06T03:28:29;3.10;68.70
10316;DHT22;5203;48.976;8.306;2023-04-06T03:30:54;3.10;69.00
10316;DHT22;5203;48.976;8.306;2023-04-06T03:33:20;3.10;68.90
10316;DHT22;5203;48.976;8.306;2023-04-06T03:35:46;3.10;68.60
10316;DHT22;5203;48.976;8.306;2023-04-06T03:38:11;3.20;68.80
10316;DHT22;5203;48.976;8.306;2023-04-06T03:40:37;3.20;68.40
10316;DHT22;5203;48.976;8.306;2023-04-06T03:43:04;3.20;68.70
10316;DHT22;5203;48.976;8.306;2023-04-06T03:45:29;3.10;69.50
10316;DHT22;5203;48.976;8.306;2023-04-06T03:47:55;3.00;69.60
10316;DHT22;5203;48.976;8.306;2023-04-06T03:50:21;3.00;69.60
10316;DHT22;5203;48.976;8.306;2023-04-06T03:52:47;3.00;69.10
10316;DHT22;5203;48.976;8.306;2023-04-06T03:55:12;3.00;70.20
10316;DHT22;5203;48.976;8.306;2023-04-06T03:57:38;2.90;69.50
10316;DHT22;5203;48.976;8.306;2023-04-06T04:00:04;2.80;69.90
10316;DHT22;5203;48.976;8.306;2023-04-06T04:02:31;2.80;70.10
10316;DHT22;5203;48.976;8.306;2023-04-06T04:04:56;2.80;70.20
10316;DHT22;5203;48.976;8.306;2023-04-06T04:07:22;2.70;70.80
10316;DHT22;5203;48.976;8.306;2023-04-06T04:09:48;2.70;70.90
10316;DHT22;5203;48.976;8.306;2023-04-06T04:12:14;2.70;71.10
10316;DHT22;5203;48.976;8.306;2023-04-06T04:14:40;2.70;71.10
10316;DHT22;5203;48.976;8.306;2023-04-06T04:17:06;2.70;71.20
10316;DHT22;5203;48.976;8.306;2023-04-06T04:19:32;2.50;72.30
10316;DHT22;5203;48.976;8.306;2023-04-06T04:21:57;2.50;72.10
10316;DHT22;5203;48.976;8.306;2023-04-06T04:24:23;2.60;72.10
10316;DHT22;5203;48.976;8.306;2023-04-06T04:26:48;2.50;72.60
10316;DHT22;5203;48.976;8.306;2023-04-06T04:29:14;2.60;71.40
10316;DHT22;5203;48.976;8.306;2023-04-06T04:31:40;2.50;71.00
10316;DHT22;5203;48.976;8.306;2023-04-06T04:34:06;2.40;72.50
10316;DHT22;5203;48.976;8.306;2023-04-06T04:36:32;2.40;73.00
10316;DHT22;5203;48.976;8.306;2023-04-06T04:38:58;2.40;72.30
10316;DHT22;5203;48.976;8.306;2023-04-06T04:41:26;2.40;72.10
10316;DHT22;5203;48.976;8.306;2023-04-06T04:43:52;2.50;71.60
10316;DHT22;5203;48.976;8.306;2023-04-06T04:46:17;2.50;71.50
10316;DHT22;5203;48.976;8.306;2023-04-06T04:48:43;2.50;71.60
10316;DHT22;5203;48.976;8.306;2023-04-06T04:51:09;2.40;71.80
10316;DHT22;5203;48.976;8.306;2023-04-06T04:53:34;2.40;72.20
10316;DHT22;5203;48.976;8.306;2023-04-06T04:56:00;2.50;72.30
10316;DHT22;5203;48.976;8.306;2023-04-06T04:58:26;2.40;72.30
10316;DHT22;5203;48.976;8.306;2023-04-06T05:00:52;2.40;72.20
10316;DHT22;5203;48.976;8.306;2023-04-06T05:03:25;2.30;72.30
10316;DHT22;5203;48.976;8.306;2023-04-06T05:05:52;2.30;72.00
10316;DHT22;5203;48.976;8.306;2023-04-06T05:08:18;2.40;71.70
10316;DHT22;5203;48.976;8.306;2023-04-06T05:10:44;2.40;72.00
10316;DHT22;5203;48.976;8.306;2023-04-06T05:13:10;2.30;72.20
10316;DHT22;5203;48.976;8.306;2023-04-06T05:15:36;2.40;72.00
10316;DHT22;5203;48.976;8.306;2023-04-06T05:18:06;2.40;71.40
10316;DHT22;5203;48.976;8.306;2023-04-06T05:20:32;2.40;72.30
10316;DHT22;5203;48.976;8.306;2023-04-06T05:22:57;2.40;71.90
10316;DHT22;5203;48.976;8.306;2023-04-06T05:25:23;2.50;71.10
10316;DHT22;5203;48.976;8.306;2023-04-06T05:27:49;2.30;72.00
10316;DHT22;5203;48.976;8.306;2023-04-06T05:30:15;2.40;72.20
10316;DHT22;5203;48.976;8.306;2023-04-06T05:32:40;2.50;71.80
10316;DHT22;5203;48.976;8.306;2023-04-06T05:35:08;2.50;71.80
10316;DHT22;5203;48.976;8.306;2023-04-06T05:37:34;2.40;72.10
10316;DHT22;5203;48.976;8.306;2023-04-06T05:39:59;2.50;72.10
10316;DHT22;5203;48.976;8.306;2023-04-06T05:42:25;2.60;71.10
10316;DHT22;5203;48.976;8.306;2023-04-06T05:44:52;2.60;71.30
10316;DHT22;5203;48.976;8.306;2023-04-06T05:47:18;2.60;71.10
10316;DHT22;5203;48.976;8.306;2023-04-06T05:49:43;2.60;71.00
10316;DHT22;5203;48.976;8.306;2023-04-06T05:52:09;2.60;70.80
10316;DHT22;5203;48.976;8.306;2023-04-06T05:54:38;2.60;71.10
10316;DHT22;5203;48.976;8.306;2023-04-06T05:57:04;2.70;71.10
10316;DHT22;5203;48.976;8.306;2023-04-06T05:59:30;2.80;70.00
10316;DHT22;5203;48.976;8.306;2023-04-06T06:01:56;2.90;69.70
10316;DHT22;5203;48.976;8.306;2023-04-06T06:04:22;2.90;69.60
10316;DHT22;5203;48.976;8.306;2023-04-06T06:06:48;3.00;69.70
10316;DHT22;5203;48.976;8.306;2023-04-06T06:09:13;2.80;70.90
10316;DHT22;5203;48.976;8.306;2023-04-06T06:11:39;2.70;72.10
10316;DHT22;5203;48.976;8.306;2023-04-06T06:14:06;2.70;73.50
10316;DHT22;5203;48.976;8.306;2023-04-06T06:16:32;2.70;72.90
10316;DHT22;5203;48.976;8.306;2023-04-06T06:18:57;2.70;74.10
10316;DHT22;5203;48.976;8.306;2023-04-06T06:21:23;2.60;74.60
10316;DHT22;5203;48.976;8.306;2023-04-06T06:23:49;2.60;74.90
10316;DHT22;5203;48.976;8.306;2023-04-06T06:26:15;2.70;75.10
10316;DHT22;5203;48.976;8.306;2023-04-06T06:28:41;2.70;74.60
10316;DHT22;5203;48.976;8.306;2023-04-06T06:31:07;2.70;75.40
10316;DHT22;5203;48.976;8.306;2023-04-06T06:33:33;2.70;75.40
10316;DHT22;5203;48.976;8.306;2023-04-06T06:35:58;2.70;76.00
10316;DHT22;5203;48.976;8.306;2023-04-06T06:38:24;2.70;75.60
10316;DHT22;5203;48.976;8.306;2023-04-06T06:40:50;2.70;75.90
10316;DHT22;5203;48.976;8.306;2023-04-06T06:43:16;2.80;76.00
10316;DHT22;5203;48.976;8.306;2023-04-06T06:45:42;2.90;75.60
10316;DHT22;5203;48.976;8.306;2023-04-06T06:48:07;3.00;75.40
10316;DHT22;5203;48.976;8.306;2023-04-06T06:50:33;3.00;75.00
10316;DHT22;5203;48.976;8.306;2023-04-06T06:52:59;3.00;75.20
10316;DHT22;5203;48.976;8.306;2023-04-06T06:55:25;3.10;74.70
10316;DHT22;5203;48.976;8.306;2023-04-06T06:57:52;3.20;75.30
10316;DHT22;5203;48.976;8.306;2023-04-06T07:00:18;3.30;74.50
10316;DHT22;5203;48.976;8.306;2023-04-06T07:02:46;3.30;74.40
10316;DHT22;5203;48.976;8.306;2023-04-06T07:05:12;3.40;75.40
10316;DHT22;5203;48.976;8.306;2023-04-06T07:07:38;3.80;75.10
10316;DHT22;5203;48.976;8.306;2023-04-06T07:10:04;4.00;73.60
10316;DHT22;5203;48.976;8.306;2023-04-06T07:12:30;4.10;73.70
10316;DHT22;5203;48.976;8.306;2023-04-06T07:14:55;4.30;70.50
10316;DHT22;5203;48.976;8.306;2023-04-06T07:17:21;4.30;70.50
10316;DHT22;5203;48.976;8.306;2023-04-06T07:19:47;4.30;70.40
10316;DHT22;5203;48.976;8.306;2023-04-06T07:22:13;4.40;70.10
10316;DHT22;5203;48.976;8.306;2023-04-06T07:24:38;4.50;69.00
10316;DHT22;5203;48.976;8.306;2023-04-06T07:27:04;4.50;69.50
10316;DHT22;5203;48.976;8.306;2023-04-06T07:29:30;4.30;71.60
10316;DHT22;5203;48.976;8.306;2023-04-06T07:31:56;4.40;69.60
10316;DHT22;5203;48.976;8.306;2023-04-06T07:34:22;4.60;70.20
10316;DHT22;5203;48.976;8.306;2023-04-06T07:36:47;4.70;69.40
10316;DHT22;5203;48.976;8.306;2023-04-06T07:39:13;4.60;69.70
10316;DHT22;5203;48.976;8.306;2023-04-06T07:41:39;4.50;70.60
10316;DHT22;5203;48.976;8.306;2023-04-06T07:44:05;4.50;72.30
10316;DHT22;5203;48.976;8.306;2023-04-06T07:46:31;4.80;71.40
10316;DHT22;5203;48.976;8.306;2023-04-06T07:48:58;4.90;71.20
10316;DHT22;5203;48.976;8.306;2023-04-06T07:51:24;5.20;70.00
10316;DHT22;5203;48.976;8.306;2023-04-06T07:53:51;5.20;70.80
10316;DHT22;5203;48.976;8.306;2023-04-06T07:56:17;5.40;70.60
10316;DHT22;5203;48.976;8.306;2023-04-06T07:58:43;5.60;67.20
10316;DHT22;5203;48.976;8.306;2023-04-06T08:01:09;5.70;67.70
10316;DHT22;5203;48.976;8.306;2023-04-06T08:03:35;5.80;67.90
10316;DHT22;5203;48.976;8.306;2023-04-06T08:06:02;6.00;65.70
10316;DHT22;5203;48.976;8.306;2023-04-06T08:08:28;6.10;64.30
10316;DHT22;5203;48.976;8.306;2023-04-06T08:10:53;6.10;66.40
10316;DHT22;5203;48.976;8.306;2023-04-06T08:13:19;6.00;65.20
10316;DHT22;5203;48.976;8.306;2023-04-06T08:15:45;6.10;65.20
10316;DHT22;5203;48.976;8.306;2023-04-06T08:18:11;6.20;65.30
10316;DHT22;5203;48.976;8.306;2023-04-06T08:20:37;6.40;63.20
10316;DHT22;5203;48.976;8.306;2023-04-06T08:23:02;6.70;61.00
10316;DHT22;5203;48.976;8.306;2023-04-06T08:25:28;6.90;59.50
10316;DHT22;5203;48.976;8.306;2023-04-06T08:27:53;7.10;58.20
10316;DHT22;5203;48.976;8.306;2023-04-06T08:30:19;7.20;56.80
10316;DHT22;5203;48.976;8.306;2023-04-06T08:32:45;7.30;56.10
10316;DHT22;5203;48.976;8.306;2023-04-06T08:35:11;7.30;55.70
10316;DHT22;5203;48.976;8.306;2023-04-06T08:37:37;7.20;56.10
10316;DHT22;5203;48.976;8.306;2023-04-06T08:40:06;7.50;55.40
10316;DHT22;5203;48.976;8.306;2023-04-06T08:42:33;7.70;55.00
10316;DHT22;5203;48.976;8.306;2023-04-06T08:44:59;7.90;53.90
10316;DHT22;5203;48.976;8.306;2023-04-06T08:47:25;8.10;52.30
10316;DHT22;5203;48.976;8.306;2023-04-06T08:49:52;7.90;53.00
10316;DHT22;5203;48.976;8.306;2023-04-06T08:52:19;8.00;52.90
10316;DHT22;5203;48.976;8.306;2023-04-06T08:54:45;8.30;52.30
10316;DHT22;5203;48.976;8.306;2023-04-06T08:57:12;8.50;50.80
10316;DHT22;5203;48.976;8.306;2023-04-06T08:59:39;8.50;50.90
10316;DHT22;5203;48.976;8.306;2023-04-06T09:02:05;8.70;50.50
10316;DHT22;5203;48.976;8.306;2023-04-06T09:04:33;8.90;49.90
10316;DHT22;5203;48.976;8.306;2023-04-06T09:07:00;9.00;50.40
10316;DHT22;5203;48.976;8.306;2023-04-06T09:09:26;8.90;52.40
10316;DHT22;5203;48.976;8.306;2023-04-06T09:11:52;9.20;51.20
10316;DHT22;5203;48.976;8.306;2023-04-06T09:14:33;9.50;50.40
10316;DHT22;5203;48.976;8.306;2023-04-06T09:17:00;9.60;50.20
10316;DHT22;5203;48.976;8.306;2023-04-06T09:19:25;9.80;48.70
10316;DHT22;5203;48.976;8.306;2023-04-06T09:22:04;9.70;50.60
10316;DHT22;5203;48.976;8.306;2023-04-06T09:24:41;10.00;48.80
10316;DHT22;5203;48.976;8.306;2023-04-06T09:27:07;10.00;48.40
10316;DHT22;5203;48.976;8.306;2023-04-06T09:29:33;10.40;46.90
10316;DHT22;5203;48.976;8.306;2023-04-06T09:32:07;10.40;46.90
10316;DHT22;5203;48.976;8.306;2023-04-06T09:34:36;10.70;46.10
10316;DHT22;5203;48.976;8.306;2023-04-06T09:37:15;10.90;43.10
10316;DHT22;5203;48.976;8.306;2023-04-06T09:39:41;10.90;45.70
10316;DHT22;5203;48.976;8.306;2023-04-06T09:42:07;11.00;45.50
10316;DHT22;5203;48.976;8.306;2023-04-06T09:44:33;10.90;48.30
10316;DHT22;5203;48.976;8.306;2023-04-06T09:46:59;10.90;45.60
10316;DHT22;5203;48.976;8.306;2023-04-06T09:49:27;10.70;47.20
10316;DHT22;5203;48.976;8.306;2023-04-06T09:51:57;10.80;45.40
10316;DHT22;5203;48.976;8.306;2023-04-06T09:54:26;11.30;43.90
10316;DHT22;5203;48.976;8.306;2023-04-06T10:02:06;11.30;41.70
10316;DHT22;5203;48.976;8.306;2023-04-06T10:04:38;11.70;40.90
10316;DHT22;5203;48.976;8.306;2023-04-06T10:07:08;11.80;40.00
10316;DHT22;5203;48.976;8.306;2023-04-06T10:09:36;12.00;37.60
10316;DHT22;5203;48.976;8.306;2023-04-06T10:12:06;12.10;36.90
10316;DHT22;5203;48.976;8.306;2023-04-06T10:14:35;12.00;38.70
10316;DHT22;5203;48.976;8.306;2023-04-06T10:17:03;12.10;36.50
10316;DHT22;5203;48.976;8.306;2023-04-06T10:19:49;12.10;37.10
10316;DHT22;5203;48.976;8.306;2023-04-06T10:23:08;12.50;36.60
10316;DHT22;5203;48.976;8.306;2023-04-06T10:25:08;12.60;36.30
10316;DHT22;5203;48.976;8.306;2023-04-06T10:27:34;12.70;35.00
10316;DHT22;5203;48.976;8.306;2023-04-06T10:30:04;12.80;33.60
10316;DHT22;5203;48.976;8.306;2023-04-06T10:32:36;12.90;33.70
10316;DHT22;5203;48.976;8.306;2023-04-06T10:35:20;12.90;32.70
10316;DHT22;5203;48.976;8.306;2023-04-06T10:38:06;12.90;33.60
10316;DHT22;5203;48.976;8.306;2023-04-06T10:40:36;13.20;32.90
10316;DHT22;5203;48.976;8.306;2023-04-06T10:43:11;13.30;32.60
10316;DHT22;5203;48.976;8.306;2023-04-06T10:45:37;13.10;31.60
10316;DHT22;5203;48.976;8.306;2023-04-06T10:48:16;13.00;31.40
10316;DHT22;5203;48.976;8.306;2023-04-06T10:50:50;13.60;31.00
10316;DHT22;5203;48.976;8.306;2023-04-06T10:53:26;13.50;32.60
10316;DHT22;5203;48.976;8.306;2023-04-06T10:55:55;13.90;30.00
10316;DHT22;5203;48.976;8.306;2023-04-06T10:58:28;14.20;29.30
10316;DHT22;5203;48.976;8.306;2023-04-06T11:00:54;14.50;28.40
10316;DHT22;5203;48.976;8.306;2023-04-06T11:03:21;14.50;28.40
10316;DHT22;5203;48.976;8.306;2023-04-06T11:05:50;14.80;28.10
10316;DHT22;5203;48.976;8.306;2023-04-06T11:08:27;15.10;28.20
10316;DHT22;5203;48.976;8.306;2023-04-06T11:11:08;15.30;28.20
10316;DHT22;5203;48.976;8.306;2023-04-06T11:13:42;15.80;27.20
10316;DHT22;5203;48.976;8.306;2023-04-06T11:19:05;15.70;28.10
10316;DHT22;5203;48.976;8.306;2023-04-06T11:21:44;15.70;28.20
10316;DHT22;5203;48.976;8.306;2023-04-06T11:24:20;15.70;28.70
10316;DHT22;5203;48.976;8.306;2023-04-06T11:26:47;16.10;27.60
10316;DHT22;5203;48.976;8.306;2023-04-06T11:29:16;16.20;27.00
10316;DHT22;5203;48.976;8.306;2023-04-06T11:31:45;15.90;27.60
10316;DHT22;5203;48.976;8.306;2023-04-06T11:34:12;15.80;26.80
10316;DHT22;5203;48.976;8.306;2023-04-06T11:36:42;15.80;27.10
10316;DHT22;5203;48.976;8.306;2023-04-06T11:39:08;15.70;27.10
10316;DHT22;5203;48.976;8.306;2023-04-06T11:41:34;15.80;27.50
10316;DHT22;5203;48.976;8.306;2023-04-06T11:44:02;15.70;25.90
10316;DHT22;5203;48.976;8.306;2023-04-06T11:46:31;15.70;25.70
10316;DHT22;5203;48.976;8.306;2023-04-06T11:49:01;15.80;26.40
10316;DHT22;5203;48.976;8.306;2023-04-06T11:51:27;15.40;27.00
10316;DHT22;5203;48.976;8.306;2023-04-06T11:53:54;15.20;27.90
10316;DHT22;5203;48.976;8.306;2023-04-06T11:56:32;15.50;28.00
10316;DHT22;5203;48.976;8.306;2023-04-06T11:58:58;15.50;27.60
10316;DHT22;5203;48.976;8.306;2023-04-06T12:01:27;15.30;28.00
10316;DHT22;5203;48.976;8.306;2023-04-06T12:03:53;15.30;28.00
10316;DHT22;5203;48.976;8.306;2023-04-06T12:06:19;15.30;26.60
10316;DHT22;5203;48.976;8.306;2023-04-06T12:08:45;15.00;27.30
10316;DHT22;5203;48.976;8.306;2023-04-06T12:11:11;15.40;27.20
10316;DHT22;5203;48.976;8.306;2023-04-06T12:13:37;15.70;28.00
10316;DHT22;5203;48.976;8.306;2023-04-06T12:16:03;16.10;26.00
10316;DHT22;5203;48.976;8.306;2023-04-06T12:18:29;16.80;25.40
10316;DHT22;5203;48.976;8.306;2023-04-06T12:20:55;17.20;25.30
10316;DHT22;5203;48.976;8.306;2023-04-06T12:23:21;17.60;24.30
10316;DHT22;5203;48.976;8.306;2023-04-06T12:25:47;17.30;24.60
10316;DHT22;5203;48.976;8.306;2023-04-06T12:28:12;17.30;24.50
10316;DHT22;5203;48.976;8.306;2023-04-06T12:30:38;17.80;25.40
10316;DHT22;5203;48.976;8.306;2023-04-06T12:33:06;17.90;24.90
10316;DHT22;5203;48.976;8.306;2023-04-06T12:35:37;17.90;25.40
10316;DHT22;5203;48.976;8.306;2023-04-06T12:38:02;17.00;25.70
10316;DHT22;5203;48.976;8.306;2023-04-06T12:40:28;17.40;25.70
10316;DHT22;5203;48.976;8.306;2023-04-06T12:42:54;17.80;25.00
10316;DHT22;5203;48.976;8.306;2023-04-06T12:45:20;17.40;24.90
10316;DHT22;5203;48.976;8.306;2023-04-06T12:47:46;17.30;23.60
10316;DHT22;5203;48.976;8.306;2023-04-06T12:50:11;17.40;23.00
10316;DHT22;5203;48.976;8.306;2023-04-06T12:52:37;17.50;23.90
10316;DHT22;5203;48.976;8.306;2023-04-06T12:55:03;17.60;21.40
10316;DHT22;5203;48.976;8.306;2023-04-06T12:57:30;17.50;21.80
10316;DHT22;5203;48.976;8.306;2023-04-06T12:59:57;17.00;22.00
10316;DHT22;5203;48.976;8.306;2023-04-06T13:02:22;16.50;24.10
10316;DHT22;5203;48.976;8.306;2023-04-06T13:04:48;16.30;23.50
10316;DHT22;5203;48.976;8.306;2023-04-06T13:07:14;16.60;23.50
10316;DHT22;5203;48.976;8.306;2023-04-06T13:09:40;16.50;22.70
10316;DHT22;5203;48.976;8.306;2023-04-06T13:12:06;16.50;21.60
10316;DHT22;5203;48.976;8.306;2023-04-06T13:14:31;16.40;21.10
10316;DHT22;5203;48.976;8.306;2023-04-06T13:16:57;16.40;22.00
10316;DHT22;5203;48.976;8.306;2023-04-06T13:19:23;16.50;23.00
10316;DHT22;5203;48.976;8.306;2023-04-06T13:21:49;16.90;22.90
10316;DHT22;5203;48.976;8.306;2023-04-06T13:24:15;17.50;21.50
10316;DHT22;5203;48.976;8.306;2023-04-06T13:26:40;17.10;21.20
10316;DHT22;5203;48.976;8.306;2023-04-06T13:29:06;16.50;22.10
10316;DHT22;5203;48.976;8.306;2023-04-06T13:31:32;16.60;22.30
10316;DHT22;5203;48.976;8.306;2023-04-06T13:33:58;16.70;21.40
10316;DHT22;5203;48.976;8.306;2023-04-06T13:36:24;17.10;22.40
10316;DHT22;5203;48.976;8.306;2023-04-06T13:38:50;16.80;23.60
10316;DHT22;5203;48.976;8.306;2023-04-06T13:41:20;17.00;23.00
10316;DHT22;5203;48.976;8.306;2023-04-06T13:43:49;17.00;23.40
10316;DHT22;5203;48.976;8.306;2023-04-06T13:46:15;17.10;22.70
10316;DHT22;5203;48.976;8.306;2023-04-06T13:48:42;17.40;23.00
10316;DHT22;5203;48.976;8.306;2023-04-06T13:51:12;17.10;23.80
10316;DHT22;5203;48.976;8.306;2023-04-06T13:53:39;17.30;24.20
10316;DHT22;5203;48.976;8.306;2023-04-06T13:56:05;17.10;23.80
10316;DHT22;5203;48.976;8.306;2023-04-06T13:58:30;17.10;24.30
10316;DHT22;5203;48.976;8.306;2023-04-06T14:01:03;16.80;24.00
10316;DHT22;5203;48.976;8.306;2023-04-06T14:03:28;16.90;24.80
10316;DHT22;5203;48.976;8.306;2023-04-06T14:05:54;17.10;24.10
10316;DHT22;5203;48.976;8.306;2023-04-06T14:08:20;17.30;24.20
10316;DHT22;5203;48.976;8.306;2023-04-06T14:10:46;17.10;24.70
10316;DHT22;5203;48.976;8.306;2023-04-06T14:13:11;17.20;24.90
10316;DHT22;5203;48.976;8.306;2023-04-06T14:15:38;16.70;26.20
10316;DHT22;5203;48.976;8.306;2023-04-06T14:18:10;16.60;26.30
10316;DHT22;5203;48.976;8.306;2023-04-06T14:20:35;16.10;26.90
10316;DHT22;5203;48.976;8.306;2023-04-06T14:23:02;16.20;26.90
10316;DHT22;5203;48.976;8.306;2023-04-06T14:25:27;16.30;26.60
10316;DHT22;5203;48.976;8.306;2023-04-06T14:27:53;16.60;26.70
10316;DHT22;5203;48.976;8.306;2023-04-06T14:30:19;16.70;26.20
10316;DHT22;5203;48.976;8.306;2023-04-06T14:32:45;16.70;26.20
10316;DHT22;5203;48.976;8.306;2023-04-06T14:35:11;16.70;26.20
10316;DHT22;5203;48.976;8.306;2023-04-06T14:37:36;16.30;26.00
10316;DHT22;5203;48.976;8.306;2023-04-06T14:40:05;16.20;26.10
10316;DHT22;5203;48.976;8.306;2023-04-06T14:42:31;16.10;27.40
10316;DHT22;5203;48.976;8.306;2023-04-06T14:44:57;16.00;26.80
10316;DHT22;5203;48.976;8.306;2023-04-06T14:47:23;16.00;28.00
10316;DHT22;5203;48.976;8.306;2023-04-06T14:49:51;15.80;27.90
10316;DHT22;5203;48.976;8.306;2023-04-06T14:52:17;15.50;28.50
10316;DHT22;5203;48.976;8.306;2023-04-06T14:54:42;15.50;29.00
10316;DHT22;5203;48.976;8.306;2023-04-06T14:57:08;15.50;27.80
10316;DHT22;5203;48.976;8.306;2023-04-06T14:59:34;15.50;27.50
10316;DHT22;5203;48.976;8.306;2023-04-06T15:02:01;15.70;27.60
10316;DHT22;5203;48.976;8.306;2023-04-06T15:04:28;15.50;28.10
10316;DHT22;5203;48.976;8.306;2023-04-06T15:06:54;15.20;28.30
10316;DHT22;5203;48.976;8.306;2023-04-06T15:09:19;15.10;29.50
10316;DHT22;5203;48.976;8.306;2023-04-06T15:11:45;15.30;29.20
10316;DHT22;5203;48.976;8.306;2023-04-06T15:14:11;15.40;29.40
10316;DHT22;5203;48.976;8.306;2023-04-06T15:16:36;15.50;28.80
10316;DHT22;5203;48.976;8.306;2023-04-06T15:19:02;15.60;29.00
10316;DHT22;5203;48.976;8.306;2023-04-06T15:21:28;15.70;30.00
10316;DHT22;5203;48.976;8.306;2023-04-06T15:23:53;15.80;29.70
10316;DHT22;5203;48.976;8.306;2023-04-06T15:26:20;15.80;29.60
10316;DHT22;5203;48.976;8.306;2023-04-06T15:28:45;15.70;29.00
10316;DHT22;5203;48.976;8.306;2023-04-06T15:31:18;15.60;29.30
10316;DHT22;5203;48.976;8.306;2023-04-06T15:33:45;15.60;29.40
10316;DHT22;5203;48.976;8.306;2023-04-06T15:36:37;15.50;29.30
10316;DHT22;5203;48.976;8.306;2023-04-06T15:39:03;15.40;29.70
10316;DHT22;5203;48.976;8.306;2023-04-06T15:41:29;15.20;29.70
10316;DHT22;5203;48.976;8.306;2023-04-06T15:43:55;15.20;29.80
10316;DHT22;5203;48.976;8.306;2023-04-06T15:46:22;15.10;30.50
10316;DHT22;5203;48.976;8.306;2023-04-06T15:48:47;15.00;30.70
10316;DHT22;5203;48.976;8.306;2023-04-06T15:51:13;15.00;30.80
10316;DHT22;5203;48.976;8.306;2023-04-06T15:53:39;15.10;31.00
10316;DHT22;5203;48.976;8.306;2023-04-06T15:56:05;15.10;31.00
10316;DHT22;5203;48.976;8.306;2023-04-06T15:58:34;15.20;31.00
10316;DHT22;5203;48.976;8.306;2023-04-06T16:00:59;15.10;31.00